BMI weather

Central Illinois Regional Airport at Bloomington-Normal
Bloomington/Normal, Illinois, United States

Public forecast

Using degrees Fahrenheit for public forecast. Weather courtesy of forecast.io.

METAR (pilot weather report)

Retrieved 2019/07/20 03:56 UTC (38 minutes ago):

KBMI 200356Z AUTO 19009KT 10SM CLR 27/24 A2991 RMK AO2 SLP118 T02670244

TAF (pilot weather forecast)

Forecast is more than 12 hours old.

Retrieved 2019/07/19 00:27 UTC (1 day ago):

TAF KBMI 192325Z 2000/2024 21011KT P6SM SKC